Time;durP1;ratioP1;P1;durP2;ratioP2;P2;SDS_P1;SDS_P2;PMS_P1;PMS_P2;Temp;Humidity;BMP_temperature;BMP_pressure;BME280_temperature;BME280_humidity;BME280_pressure;Samples;Min_cycle;Max_cycle;Signal;HPM_P1;HPM_P2
2023/04/01 00:00:07;;;;;;;11.02;3.28;;;;;;;;;;5034371;28;20385;-68
2023/04/01 00:02:33;;;;;;;9.63;3.38;;;;;;;;;;5034970;28;20501;-67
2023/04/01 00:04:59;;;;;;;11.60;3.08;;;;;;;;;;5034967;28;20021;-66
2023/04/01 00:07:25;;;;;;;16.85;3.05;;;;;;;;;;5034885;28;20032;-69
2023/04/01 00:09:51;;;;;;;8.45;3.10;;;;;;;;;;5034575;28;20033;-67
2023/04/01 00:12:17;;;;;;;16.38;3.97;;;;;;;;;;5034696;28;20036;-68
2023/04/01 00:14:44;;;;;;;12.38;3.65;;;;;;;;;;5034072;28;20059;-68
2023/04/01 00:17:10;;;;;;;15.43;3.13;;;;;;;;;;5034744;28;20036;-67
2023/04/01 00:19:36;;;;;;;12.70;3.33;;;;;;;;;;5034545;28;20037;-68
2023/04/01 00:22:03;;;;;;;14.27;3.78;;;;;;;;;;5034370;28;20030;-67
2023/04/01 00:24:29;;;;;;;17.55;3.53;;;;;;;;;;5034308;28;20021;-68
2023/04/01 00:26:55;;;;;;;12.43;2.70;;;;;;;;;;5034728;28;20030;-69
2023/04/01 00:29:23;;;;;;;18.85;3.65;;;;;;;;;;5034415;28;20108;-70
2023/04/01 00:31:50;;;;;;;11.82;2.88;;;;;;;;;;5033910;28;20482;-68
2023/04/01 00:34:16;;;;;;;10.40;3.20;;;;;;;;;;5034504;28;20670;-70
2023/04/01 00:36:42;;;;;;;9.10;3.33;;;;;;;;;;5034233;28;20038;-70
2023/04/01 00:39:08;;;;;;;13.32;4.20;;;;;;;;;;5034239;28;20079;-69
2023/04/01 00:41:35;;;;;;;12.25;3.90;;;;;;;;;;5033999;28;20489;-68
2023/04/01 00:44:18;;;;;;;10.73;3.92;;;;;;;;;;5034385;28;20030;-71
2023/04/01 00:46:44;;;;;;;13.32;4.03;;;;;;;;;;5034250;28;20097;-69
2023/04/01 00:49:10;;;;;;;18.48;3.60;;;;;;;;;;5033909;28;20393;-69
2023/04/01 00:51:37;;;;;;;8.88;3.22;;;;;;;;;;5033981;28;20381;-68
2023/04/01 00:54:05;;;;;;;10.88;3.60;;;;;;;;;;5034100;28;20035;-69
2023/04/01 00:56:35;;;;;;;11.02;3.28;;;;;;;;;;5033873;28;20124;-69
2023/04/01 00:59:03;;;;;;;13.93;3.42;;;;;;;;;;5034029;28;20126;-70
2023/04/01 01:01:30;;;;;;;11.95;3.40;;;;;;;;;;5034055;28;20071;-70
2023/04/01 01:03:57;;;;;;;8.15;2.97;;;;;;;;;;5033204;28;20436;-69
2023/04/01 01:06:23;;;;;;;9.30;3.75;;;;;;;;;;5033943;28;20449;-69
2023/04/01 01:08:58;;;;;;;13.75;3.70;;;;;;;;;;5033342;28;20374;-68
2023/04/01 01:11:32;;;;;;;12.88;3.47;;;;;;;;;;5033714;28;20079;-68
2023/04/01 01:14:24;;;;;;;15.13;3.22;;;;;;;;;;5032216;28;20025;-69
2023/04/01 01:16:50;;;;;;;;;;;;;;;;;;5033602;28;20045;-69
2023/04/01 01:19:35;;;;;;;14.45;4.57;;;;;;;;;;5032978;28;19950;-70
2023/04/01 01:22:20;;;;;;;16.65;3.58;;;;;;;;;;5033200;28;20033;-70
2023/04/01 01:24:52;;;;;;;9.65;3.15;;;;;;;;;;5033299;28;20029;-71
2023/04/01 01:27:17;;;;;;;;;;;;;;;;;;5032529;28;20029;-72
2023/04/01 01:29:44;;;;;;;18.98;4.05;;;;;;;;;;5033378;28;19912;-70
2023/04/01 01:32:13;;;;;;;8.85;2.80;;;;;;;;;;5033313;28;20021;-69
2023/04/01 01:35:11;;;;;;;9.55;3.40;;;;;;;;;;5033208;28;20022;-68
2023/04/01 01:37:39;;;;;;;9.05;3.13;;;;;;;;;;5031659;28;20042;-68
2023/04/01 01:40:06;;;;;;;7.68;3.15;;;;;;;;;;5032995;28;20481;-68
2023/04/01 01:42:34;;;;;;;6.25;2.83;;;;;;;;;;5032309;28;20107;-68
2023/04/01 01:45:00;;;;;;;7.72;2.85;;;;;;;;;;5032956;28;20109;-68
2023/04/01 01:47:27;;;;;;;8.23;2.85;;;;;;;;;;5032859;28;20029;-67
2023/04/01 01:49:55;;;;;;;6.15;2.35;;;;;;;;;;5032878;28;20030;-67
2023/04/01 01:52:22;;;;;;;6.53;2.92;;;;;;;;;;5032917;28;20083;-67
2023/04/01 01:54:52;;;;;;;5.55;2.50;;;;;;;;;;5032837;28;20025;-66
2023/04/01 01:57:20;;;;;;;8.30;3.13;;;;;;;;;;5032028;28;20048;-67
2023/04/01 01:59:47;;;;;;;6.03;2.65;;;;;;;;;;5032678;28;20028;-67
2023/04/01 02:02:14;;;;;;;11.15;3.40;;;;;;;;;;5032611;28;20034;-67
2023/04/01 02:04:41;;;;;;;9.15;3.08;;;;;;;;;;5032505;28;20018;-67
2023/04/01 02:07:10;;;;;;;7.88;2.50;;;;;;;;;;5032589;28;20425;-68
2023/04/01 02:09:36;;;;;;;5.80;2.42;;;;;;;;;;5032406;28;20028;-67
2023/04/01 02:12:10;;;;;;;9.82;2.83;;;;;;;;;;5032002;28;20021;-69
2023/04/01 02:14:52;;;;;;;11.85;2.22;;;;;;;;;;5032390;28;20192;-68
2023/04/01 02:17:19;;;;;;;11.70;2.33;;;;;;;;;;5032701;28;20045;-68
2023/04/01 02:19:51;;;;;;;10.68;3.53;;;;;;;;;;5032255;28;20026;-67
2023/04/01 02:22:20;;;;;;;5.65;2.75;;;;;;;;;;5032440;28;20029;-67
2023/04/01 02:24:46;;;;;;;7.93;2.47;;;;;;;;;;5032512;28;20116;-66
2023/04/01 02:27:13;;;;;;;9.13;2.63;;;;;;;;;;5032213;28;20108;-68
2023/04/01 02:29:39;;;;;;;5.45;2.70;;;;;;;;;;5032067;28;20482;-67
2023/04/01 02:32:06;;;;;;;5.35;3.03;;;;;;;;;;5032186;28;20112;-67
2023/04/01 02:34:33;;;;;;;8.25;3.28;;;;;;;;;;5032391;28;20188;-67
2023/04/01 02:36:59;;;;;;;4.32;2.47;;;;;;;;;;5032040;28;20033;-66
2023/04/01 02:39:26;;;;;;;5.40;2.60;;;;;;;;;;5031976;28;20025;-66
2023/04/01 02:41:52;;;;;;;4.90;2.72;;;;;;;;;;5031784;28;20053;-68
2023/04/01 02:44:18;;;;;;;5.10;2.53;;;;;;;;;;5031672;28;20025;-67
2023/04/01 02:46:45;;;;;;;5.35;2.38;;;;;;;;;;5031470;28;20470;-67
2023/04/01 02:49:11;;;;;;;4.70;2.58;;;;;;;;;;5031923;28;20068;-67
2023/04/01 02:51:37;;;;;;;6.93;2.83;;;;;;;;;;5031830;28;20026;-66
2023/04/01 02:54:03;;;;;;;5.60;2.45;;;;;;;;;;5031538;28;20139;-66
2023/04/01 02:56:30;;;;;;;4.43;2.38;;;;;;;;;;5031543;28;20064;-65
2023/04/01 02:58:56;;;;;;;4.15;2.25;;;;;;;;;;5031735;28;20083;-65
2023/04/01 03:01:23;;;;;;;4.40;1.92;;;;;;;;;;5044233;28;20477;-65
2023/04/01 03:03:49;;;;;;;7.00;2.45;;;;;;;;;;5051464;28;20497;-66
2023/04/01 03:06:16;;;;;;;3.35;2.17;;;;;;;;;;5051494;28;20033;-67
2023/04/01 03:08:42;;;;;;;7.50;2.10;;;;;;;;;;5051357;28;20504;-70
2023/04/01 03:11:10;;;;;;;7.07;2.50;;;;;;;;;;5051326;28;20027;-71
2023/04/01 03:13:36;;;;;;;4.15;2.10;;;;;;;;;;5051263;28;20025;-74
2023/04/01 03:16:03;;;;;;;3.35;2.60;;;;;;;;;;5051083;28;20082;-73
2023/04/01 03:18:29;;;;;;;9.60;2.47;;;;;;;;;;5049747;28;20056;-71
2023/04/01 03:20:55;;;;;;;7.10;2.65;;;;;;;;;;5051258;28;20100;-69
2023/04/01 03:23:21;;;;;;;8.98;2.83;;;;;;;;;;5051137;28;20025;-69
2023/04/01 03:25:48;;;;;;;7.60;2.97;;;;;;;;;;5051169;28;20035;-70
2023/04/01 03:28:14;;;;;;;8.63;2.75;;;;;;;;;;5051250;28;20424;-69
2023/04/01 03:30:40;;;;;;;6.28;2.92;;;;;;;;;;5051351;28;20036;-70
2023/04/01 03:33:06;;;;;;;7.28;2.95;;;;;;;;;;5051230;28;20028;-68
2023/04/01 03:35:35;;;;;;;5.63;2.90;;;;;;;;;;5049666;28;20056;-68
2023/04/01 03:38:01;;;;;;;15.32;3.20;;;;;;;;;;5051114;28;20367;-68
2023/04/01 03:40:27;;;;;;;9.82;2.92;;;;;;;;;;5050901;28;20025;-69
2023/04/01 03:42:54;;;;;;;15.18;3.22;;;;;;;;;;5050962;28;20032;-69
2023/04/01 03:45:20;;;;;;;11.88;3.40;;;;;;;;;;5051060;28;20500;-68
2023/04/01 03:47:46;;;;;;;21.60;4.40;;;;;;;;;;5051085;28;20059;-67
2023/04/01 03:50:12;;;;;;;15.38;3.50;;;;;;;;;;5050984;28;20481;-66
2023/04/01 03:52:38;;;;;;;12.93;3.25;;;;;;;;;;5049647;28;20111;-67
2023/04/01 03:55:04;;;;;;;14.63;3.70;;;;;;;;;;5050650;28;20095;-68
2023/04/01 03:57:33;;;;;;;17.15;2.92;;;;;;;;;;5051033;28;20051;-68
2023/04/01 03:59:59;;;;;;;21.83;3.35;;;;;;;;;;5050902;28;20057;-67
2023/04/01 04:02:25;;;;;;;15.25;3.53;;;;;;;;;;5050991;28;20099;-65
2023/04/01 04:04:51;;;;;;;13.10;3.17;;;;;;;;;;5050802;28;20025;-66
2023/04/01 04:07:17;;;;;;;13.13;3.90;;;;;;;;;;5051101;28;20078;-66
2023/04/01 04:09:44;;;;;;;18.38;3.70;;;;;;;;;;5049418;28;20413;-67
2023/04/01 04:12:10;;;;;;;13.13;3.33;;;;;;;;;;5050762;28;20477;-66
2023/04/01 04:14:36;;;;;;;17.95;3.35;;;;;;;;;;5050568;28;20489;-66
2023/04/01 04:17:02;;;;;;;22.00;3.60;;;;;;;;;;5050662;28;20039;-68
2023/04/01 04:19:33;;;;;;;20.08;3.60;;;;;;;;;;5050918;28;20021;-66
2023/04/01 04:22:01;;;;;;;16.35;4.20;;;;;;;;;;5050623;28;20108;-66
2023/04/01 04:24:27;;;;;;;14.20;3.22;;;;;;;;;;5050832;28;20063;-66
2023/04/01 04:26:53;;;;;;;22.95;4.10;;;;;;;;;;5043448;28;20030;-66
2023/04/01 04:29:19;;;;;;;23.48;3.60;;;;;;;;;;5030756;28;20025;-66
2023/04/01 04:31:45;;;;;;;15.48;3.65;;;;;;;;;;5030814;28;20113;-68
2023/04/01 04:34:11;;;;;;;12.57;3.20;;;;;;;;;;5030662;28;20109;-67
2023/04/01 04:36:37;;;;;;;19.13;4.38;;;;;;;;;;5030540;28;20497;-66
2023/04/01 04:39:03;;;;;;;20.48;3.65;;;;;;;;;;5030628;28;20061;-65
2023/04/01 04:41:29;;;;;;;19.38;4.13;;;;;;;;;;5030531;28;20061;-66
2023/04/01 04:43:56;;;;;;;16.02;3.80;;;;;;;;;;5032584;28;20032;-68
2023/04/01 04:46:22;;;;;;;13.85;2.92;;;;;;;;;;5054294;28;20036;-66
2023/04/01 04:48:49;;;;;;;17.90;3.95;;;;;;;;;;5053988;28;20037;-66
2023/04/01 04:51:16;;;;;;;19.58;4.72;;;;;;;;;;5054141;28;20060;-66
2023/04/01 04:53:42;;;;;;;14.52;3.38;;;;;;;;;;5052878;28;20029;-65
2023/04/01 04:56:08;;;;;;;19.15;3.13;;;;;;;;;;5053855;28;20028;-66
2023/04/01 04:58:35;;;;;;;15.27;3.22;;;;;;;;;;5054034;28;20376;-65
2023/04/01 05:01:06;;;;;;;17.90;3.38;;;;;;;;;;5047871;28;20021;-65
2023/04/01 05:03:32;;;;;;;11.00;2.83;;;;;;;;;;5033871;28;20363;-65
2023/04/01 05:05:58;;;;;;;19.52;3.85;;;;;;;;;;5033714;28;20463;-66
2023/04/01 05:08:24;;;;;;;17.77;4.28;;;;;;;;;;5033789;28;20489;-66
2023/04/01 05:10:50;;;;;;;19.00;3.55;;;;;;;;;;5034115;28;20414;-65
2023/04/01 05:13:16;;;;;;;17.10;3.72;;;;;;;;;;5032537;28;20056;-65
2023/04/01 05:15:42;;;;;;;15.75;3.30;;;;;;;;;;5032990;28;20053;-65
2023/04/01 05:18:08;;;;;;;15.27;3.15;;;;;;;;;;5052748;28;20025;-65
2023/04/01 05:20:34;;;;;;;14.63;3.25;;;;;;;;;;5052300;28;20051;-64
2023/04/01 05:23:00;;;;;;;11.70;2.88;;;;;;;;;;5053531;28;20029;-63
2023/04/01 05:25:26;;;;;;;11.93;3.03;;;;;;;;;;5053314;28;20470;-64
2023/04/01 05:27:52;;;;;;;13.75;3.30;;;;;;;;;;5053302;28;20037;-64
2023/04/01 05:30:18;;;;;;;12.82;4.25;;;;;;;;;;5053209;28;20021;-61
2023/04/01 05:32:44;;;;;;;11.70;3.47;;;;;;;;;;5052587;28;20067;-62
2023/04/01 05:35:11;;;;;;;20.00;3.80;;;;;;;;;;5033430;28;20018;-61
2023/04/01 05:37:37;;;;;;;20.17;4.20;;;;;;;;;;5031959;28;20030;-61
2023/04/01 05:40:04;;;;;;;15.88;3.58;;;;;;;;;;5033264;28;20622;-62
2023/04/01 05:42:30;;;;;;;12.35;2.55;;;;;;;;;;5033138;28;20053;-61
2023/04/01 05:44:56;;;;;;;7.68;2.22;;;;;;;;;;5033144;28;20026;-61
2023/04/01 05:47:23;;;;;;;7.40;2.00;;;;;;;;;;5033011;28;20398;-61
2023/04/01 05:49:49;;;;;;;3.45;2.08;;;;;;;;;;5033074;28;20032;-61
2023/04/01 05:52:15;;;;;;;7.10;2.20;;;;;;;;;;5032565;28;20022;-63
2023/04/01 05:54:41;;;;;;;0.20;0.20;;;;;;;;;;5031214;28;20029;-60
2023/04/01 05:57:07;;;;;;;0.40;0.40;;;;;;;;;;5035955;28;20036;-61
2023/04/01 05:59:34;;;;;;;0.20;0.20;;;;;;;;;;5032855;28;20024;-63
2023/04/01 06:02:01;;;;;;;0.20;0.20;;;;;;;;;;5032566;28;20033;-62
2023/04/01 06:04:30;;;;;;;0.20;0.20;;;;;;;;;;5032564;28;20096;-61
2023/04/01 06:06:56;;;;;;;0.15;0.15;;;;;;;;;;5039842;28;20512;-61
2023/04/01 06:09:26;;;;;;;0.20;0.20;;;;;;;;;;5040566;28;20664;-61
2023/04/01 06:12:11;;;;;;;0.43;0.43;;;;;;;;;;5040729;28;20371;-62
2023/04/01 06:14:37;;;;;;;0.20;0.20;;;;;;;;;;5041779;28;20029;-61
2023/04/01 06:17:30;;;;;;;0.43;0.43;;;;;;;;;;5041942;28;20036;-62
2023/04/01 06:19:56;;;;;;;;;;;;;;;;;;5040795;28;20478;-60
2023/04/01 06:22:22;;;;;;;0.20;0.20;;;;;;;;;;5042506;28;19905;-61
2023/04/01 06:25:05;;;;;;;0.30;0.30;;;;;;;;;;5042066;28;20076;-61
2023/04/01 06:27:41;;;;;;;0.20;0.20;;;;;;;;;;5042819;28;20033;-64
2023/04/01 06:30:13;;;;;;;0.20;0.20;;;;;;;;;;5035420;28;20022;-65
2023/04/01 06:32:48;;;;;;;0.20;0.20;;;;;;;;;;5047357;28;20029;-64
2023/04/01 06:35:15;;;;;;;0.52;0.52;;;;;;;;;;5051799;28;20377;-64
2023/04/01 06:37:44;;;;;;;0.13;0.13;;;;;;;;;;5052179;28;20449;-64
2023/04/01 06:40:13;;;;;;;0.20;0.20;;;;;;;;;;5050934;28;20481;-65
2023/04/01 06:42:42;;;;;;;0.20;0.20;;;;;;;;;;5031865;28;20063;-65
2023/04/01 06:45:14;;;;;;;0.20;0.20;;;;;;;;;;5031371;28;20504;-67
2023/04/01 06:47:50;;;;;;;0.20;0.20;;;;;;;;;;5035679;28;20039;-67
2023/04/01 06:50:22;;;;;;;0.20;0.20;;;;;;;;;;5050079;28;20488;-67
2023/04/01 06:52:48;;;;;;;0.20;0.20;;;;;;;;;;5051702;28;20059;-67
2023/04/01 06:55:26;;;;;;;0.20;0.20;;;;;;;;;;5041293;28;20181;-68
2023/04/01 06:57:55;;;;;;;0.28;0.28;;;;;;;;;;5034645;28;20080;-68
2023/04/01 07:00:27;;;;;;;0.20;0.20;;;;;;;;;;5030878;28;20025;-67
2023/04/01 07:03:02;;;;;;;0.57;0.57;;;;;;;;;;5039285;28;20031;-66
2023/04/01 07:05:31;;;;;;;0.20;0.20;;;;;;;;;;5051492;28;20017;-66
2023/04/01 07:07:58;;;;;;;0.25;0.25;;;;;;;;;;5038990;28;20103;-68
2023/04/01 07:10:43;;;;;;;0.10;0.10;;;;;;;;;;5039471;28;20025;-68
2023/04/01 07:13:44;;;;;;;0.30;0.30;;;;;;;;;;5049968;28;20021;-67
2023/04/01 07:16:21;;;;;;;0.67;0.67;;;;;;;;;;5047536;28;20033;-68
2023/04/01 07:18:53;;;;;;;0.68;0.43;;;;;;;;;;5036019;28;20045;-68
2023/04/01 07:21:31;;;;;;;0.20;0.20;;;;;;;;;;5031335;28;20022;-68
2023/04/01 07:24:00;;;;;;;0.22;0.22;;;;;;;;;;5031153;28;20032;-68
2023/04/01 07:26:26;;;;;;;0.88;0.82;;;;;;;;;;5031077;28;20021;-67
2023/04/01 07:28:53;;;;;;;0.20;0.20;;;;;;;;;;5031179;28;20105;-68
2023/04/01 07:31:19;;;;;;;0.20;0.20;;;;;;;;;;5033149;28;20057;-68
2023/04/01 07:33:59;;;;;;;0.20;0.20;;;;;;;;;;5046576;28;20068;-68
2023/04/01 07:36:34;;;;;;;0.20;0.20;;;;;;;;;;5050617;28;20043;-68
2023/04/01 07:39:16;;;;;;;0.20;0.20;;;;;;;;;;5050983;28;20100;-68
2023/04/01 07:41:57;;;;;;;0.20;0.20;;;;;;;;;;5031367;28;20053;-67
2023/04/01 07:44:23;;;;;;;0.10;0.10;;;;;;;;;;5030935;28;20117;-67
2023/04/01 07:46:55;;;;;;;0.20;0.20;;;;;;;;;;5047844;28;20111;-66
2023/04/01 07:49:40;;;;;;;0.20;0.20;;;;;;;;;;5050765;28;20025;-67
2023/04/01 07:52:21;;;;;;;0.20;0.20;;;;;;;;;;5049428;28;20036;-67
2023/04/01 07:54:54;;;;;;;0.60;0.60;;;;;;;;;;5049917;28;20029;-68
2023/04/01 07:57:40;;;;;;;0.20;0.20;;;;;;;;;;5050591;28;20029;-67
2023/04/01 08:00:09;;;;;;;0.20;0.20;;;;;;;;;;5032943;28;20041;-67
2023/04/01 08:02:51;;;;;;;1.92;0.88;;;;;;;;;;5045717;28;20036;-67
2023/04/01 08:05:34;;;;;;;0.20;0.20;;;;;;;;;;5048814;28;20075;-66
2023/04/01 08:08:20;;;;;;;0.20;0.20;;;;;;;;;;5041886;28;20040;-66
2023/04/01 08:10:51;;;;;;;0.40;0.40;;;;;;;;;;5042803;28;20022;-66
2023/04/01 08:13:17;;;;;;;0.50;0.50;;;;;;;;;;5050038;28;20374;-66
2023/04/01 08:15:48;;;;;;;0.55;0.55;;;;;;;;;;5049855;28;20380;-66
2023/04/01 08:18:23;;;;;;;0.55;0.55;;;;;;;;;;5031433;28;20037;-66
2023/04/01 08:21:01;;;;;;;0.38;0.38;;;;;;;;;;5034783;28;20045;-65
2023/04/01 08:23:30;;;;;;;0.20;0.20;;;;;;;;;;5034410;28;20429;-67
2023/04/01 08:26:02;;;;;;;0.30;0.30;;;;;;;;;;5045330;28;20025;-67
2023/04/01 08:28:28;;;;;;;0.20;0.20;;;;;;;;;;5040981;28;20049;-67
2023/04/01 08:30:59;;;;;;;0.20;0.20;;;;;;;;;;5033860;28;20496;-66
2023/04/01 08:33:28;;;;;;;0.20;0.20;;;;;;;;;;5034328;28;20021;-67
2023/04/01 08:36:13;;;;;;;0.52;0.52;;;;;;;;;;5051855;28;20463;-66
2023/04/01 08:38:50;;;;;;;1.33;0.88;;;;;;;;;;5054240;28;20557;-66
2023/04/01 08:41:15;;;;;;;0.20;0.20;;;;;;;;;;5054082;28;20088;-66
2023/04/01 08:43:44;;;;;;;0.55;0.55;;;;;;;;;;5050923;28;20068;-67
2023/04/01 08:46:19;;;;;;;0.20;0.20;;;;;;;;;;5052190;28;20052;-66
2023/04/01 08:48:51;;;;;;;0.80;0.55;;;;;;;;;;5039724;28;20511;-66
2023/04/01 08:51:17;;;;;;;0.20;0.20;;;;;;;;;;5043574;28;20063;-67
2023/04/01 08:53:43;;;;;;;0.40;0.40;;;;;;;;;;5051844;28;20496;-64
2023/04/01 08:56:22;;;;;;;0.30;0.30;;;;;;;;;;5042429;28;20036;-66
2023/04/01 08:59:00;;;;;;;0.20;0.20;;;;;;;;;;5043946;28;20075;-64
2023/04/01 09:01:26;;;;;;;0.20;0.20;;;;;;;;;;5032213;28;20025;-66
2023/04/01 09:04:04;;;;;;;0.20;0.20;;;;;;;;;;5033909;28;20038;-65
2023/04/01 09:06:53;;;;;;;0.30;0.30;;;;;;;;;;5041300;28;20032;-64
2023/04/01 09:09:38;;;;;;;0.38;0.38;;;;;;;;;;5053644;28;20521;-64
2023/04/01 09:12:23;;;;;;;1.65;0.95;;;;;;;;;;5044372;28;20480;-64
2023/04/01 09:15:04;;;;;;;0.30;0.30;;;;;;;;;;5036194;28;20033;-64
2023/04/01 09:17:45;;;;;;;0.20;0.20;;;;;;;;;;5033735;28;20065;-65
2023/04/01 09:20:14;;;;;;;0.20;0.20;;;;;;;;;;5033744;28;20577;-63
2023/04/01 09:23:09;;;;;;;0.20;0.20;;;;;;;;;;5041690;28;20039;-63
2023/04/01 09:26:04;;;;;;;0.20;0.20;;;;;;;;;;5039161;28;20033;-63
2023/04/01 09:28:53;;;;;;;0.20;0.20;;;;;;;;;;5036509;28;20055;-64
2023/04/01 09:31:28;;;;;;;0.35;0.35;;;;;;;;;;5034400;28;20497;-64
2023/04/01 09:33:54;;;;;;;0.20;0.20;;;;;;;;;;5033425;28;20505;-63
2023/04/01 09:36:26;;;;;;;0.30;0.30;;;;;;;;;;5035588;28;20083;-64
2023/04/01 09:38:52;;;;;;;;;;;;;;;;;;5052478;28;20102;-64
2023/04/01 09:41:27;;;;;;;0.20;0.20;;;;;;;;;;5034022;28;20360;-63
2023/04/01 09:44:04;;;;;;;0.20;0.20;;;;;;;;;;5033260;28;20029;-64
2023/04/01 09:46:31;;;;;;;0.20;0.20;;;;;;;;;;5033474;28;20053;-63
2023/04/01 09:49:15;;;;;;;0.35;0.35;;;;;;;;;;5033160;28;20055;-64
2023/04/01 09:51:41;;;;;;;1.70;1.65;;;;;;;;;;5033159;28;20025;-64
2023/04/01 09:54:19;;;;;;;0.20;0.20;;;;;;;;;;5033220;28;20223;-62
2023/04/01 09:56:45;;;;;;;0.28;0.28;;;;;;;;;;5040963;28;20072;-62
2023/04/01 09:59:30;;;;;;;0.20;0.20;;;;;;;;;;5052867;28;20059;-63
2023/04/01 10:02:02;;;;;;;0.20;0.20;;;;;;;;;;5045819;28;20014;-62
2023/04/01 10:04:40;;;;;;;0.20;0.20;;;;;;;;;;5048158;28;20113;-62
2023/04/01 10:07:25;;;;;;;0.10;0.10;;;;;;;;;;5032697;28;20018;-62
2023/04/01 10:09:54;;;;;;;0.20;0.20;;;;;;;;;;5032330;28;20453;-62
2023/04/01 10:12:35;;;;;;;1.00;0.55;;;;;;;;;;5033966;28;20026;-63
2023/04/01 10:15:07;;;;;;;0.20;0.20;;;;;;;;;;5052471;28;20036;-63
2023/04/01 10:17:42;;;;;;;0.20;0.20;;;;;;;;;;5040855;28;20075;-62
2023/04/01 10:20:24;;;;;;;0.20;0.20;;;;;;;;;;5032433;28;20033;-62
2023/04/01 10:22:57;;;;;;;0.47;0.47;;;;;;;;;;5032416;28;20103;-63
2023/04/01 10:25:41;;;;;;;0.52;0.52;;;;;;;;;;5041328;28;20033;-63
2023/04/01 10:28:22;;;;;;;0.20;0.20;;;;;;;;;;5032790;28;20033;-62
2023/04/01 10:31:07;;;;;;;0.20;0.20;;;;;;;;;;5040067;28;20424;-62
2023/04/01 10:33:54;;;;;;;0.20;0.20;;;;;;;;;;5041696;28;20392;-63
2023/04/01 10:36:35;;;;;;;0.20;0.20;;;;;;;;;;5031718;28;20385;-63
2023/04/01 10:39:01;;;;;;;0.30;0.30;;;;;;;;;;5032036;28;20022;-62
2023/04/01 10:41:47;;;;;;;0.20;0.20;;;;;;;;;;5032645;28;20087;-62
2023/04/01 10:44:32;;;;;;;0.20;0.20;;;;;;;;;;5033489;28;20033;-65
2023/04/01 10:47:16;;;;;;;0.32;0.32;;;;;;;;;;5035232;28;20034;-62
2023/04/01 10:49:54;;;;;;;0.20;0.20;;;;;;;;;;5032340;28;20223;-64
2023/04/01 10:52:39;;;;;;;0.45;0.43;;;;;;;;;;5032113;28;20123;-63
2023/04/01 10:55:24;;;;;;;0.22;0.22;;;;;;;;;;5032626;28;20017;-64
2023/04/01 10:57:53;;;;;;;0.20;0.20;;;;;;;;;;5030889;28;20033;-64
2023/04/01 11:00:28;;;;;;;0.52;0.40;;;;;;;;;;5032116;28;20393;-65
2023/04/01 11:03:09;;;;;;;0.40;0.40;;;;;;;;;;5037631;28;20519;-63
2023/04/01 11:05:50;;;;;;;0.30;0.30;;;;;;;;;;5031414;28;20508;-65
2023/04/01 11:08:29;;;;;;;0.15;0.15;;;;;;;;;;5031365;28;20068;-63
2023/04/01 11:11:14;;;;;;;0.30;0.30;;;;;;;;;;5033700;28;20033;-64
2023/04/01 11:13:46;;;;;;;0.30;0.30;;;;;;;;;;5038160;28;20037;-64
2023/04/01 11:16:12;;;;;;;0.20;0.20;;;;;;;;;;5036289;28;20117;-64
2023/04/01 11:19:04;;;;;;;0.20;0.20;;;;;;;;;;5031267;28;20100;-63
2023/04/01 11:21:56;;;;;;;0.20;0.20;;;;;;;;;;5034756;28;20045;-64
2023/04/01 11:24:41;;;;;;;0.20;0.20;;;;;;;;;;5049870;28;20041;-63
2023/04/01 11:27:07;;;;;;;1.08;1.08;;;;;;;;;;5049048;28;20025;-64
2023/04/01 11:29:33;;;;;;;0.20;0.20;;;;;;;;;;5050996;28;20389;-63
2023/04/01 11:32:07;;;;;;;0.20;0.20;;;;;;;;;;5051299;28;20025;-62
2023/04/01 11:34:42;;;;;;;0.20;0.20;;;;;;;;;;5043942;28;20092;-63
2023/04/01 11:37:23;;;;;;;0.63;0.63;;;;;;;;;;5030799;28;20067;-63
2023/04/01 11:40:00;;;;;;;0.57;0.57;;;;;;;;;;5031143;28;20022;-63
2023/04/01 11:42:29;;;;;;;0.30;0.30;;;;;;;;;;5034688;28;20811;-62
2023/04/01 11:45:08;;;;;;;0.30;0.30;;;;;;;;;;5033293;28;20075;-63
2023/04/01 11:47:49;;;;;;;0.73;0.50;;;;;;;;;;5037831;28;20063;-66
2023/04/01 11:50:16;;;;;;;0.30;0.30;;;;;;;;;;5050717;28;20547;-62
2023/04/01 11:53:03;;;;;;;0.20;0.20;;;;;;;;;;5043892;28;20025;-62
2023/04/01 11:55:40;;;;;;;0.20;0.20;;;;;;;;;;5048865;28;20025;-67
2023/04/01 11:58:12;;;;;;;0.45;0.45;;;;;;;;;;5035132;28;20056;-63
2023/04/01 12:00:54;;;;;;;0.28;0.28;;;;;;;;;;5039956;28;20043;-63
2023/04/01 12:03:23;;;;;;;0.30;0.30;;;;;;;;;;5044268;28;20037;-63
2023/04/01 12:05:55;;;;;;;0.20;0.20;;;;;;;;;;5034945;28;20094;-63
2023/04/01 12:08:29;;;;;;;0.20;0.20;;;;;;;;;;5048604;28;20029;-63
2023/04/01 12:11:05;;;;;;;0.20;0.20;;;;;;;;;;5055022;28;20028;-63
2023/04/01 12:13:49;;;;;;;0.60;0.60;;;;;;;;;;5051643;28;20040;-62
2023/04/01 12:16:33;;;;;;;0.25;0.25;;;;;;;;;;5042366;28;20037;-64
2023/04/01 12:19:02;;;;;;;0.20;0.20;;;;;;;;;;5048705;28;20144;-63
2023/04/01 12:21:49;;;;;;;0.20;0.20;;;;;;;;;;5037265;28;20026;-62
2023/04/01 12:24:23;;;;;;;1.50;1.10;;;;;;;;;;5056373;28;20056;-62
2023/04/01 12:26:49;;;;;;;0.20;0.20;;;;;;;;;;5054414;28;20035;-63
2023/04/01 12:29:34;;;;;;;0.30;0.30;;;;;;;;;;5054373;28;20021;-64
2023/04/01 12:32:00;;;;;;;0.20;0.20;;;;;;;;;;5053199;28;20029;-63
2023/04/01 12:34:45;;;;;;;0.20;0.20;;;;;;;;;;5054612;28;20036;-62
2023/04/01 12:37:20;;;;;;;0.47;0.47;;;;;;;;;;5054464;28;20048;-62
2023/04/01 12:40:04;;;;;;;0.20;0.20;;;;;;;;;;5054245;28;20401;-62
2023/04/01 12:42:36;;;;;;;1.17;0.63;;;;;;;;;;5054065;28;20049;-62
2023/04/01 12:45:02;;;;;;;;;;;;;;;;;;5051959;28;20508;-62
2023/04/01 12:47:34;;;;;;;0.20;0.20;;;;;;;;;;5054166;28;19904;-63
2023/04/01 12:50:17;;;;;;;0.20;0.20;;;;;;;;;;5054125;28;20017;-62
2023/04/01 12:53:02;;;;;;;0.20;0.20;;;;;;;;;;5054005;28;20389;-63
2023/04/01 12:55:36;;;;;;;0.30;0.30;;;;;;;;;;5053999;28;20029;-63
2023/04/01 12:58:21;;;;;;;0.90;0.77;;;;;;;;;;5053921;28;20029;-62
2023/04/01 13:00:50;;;;;;;0.30;0.30;;;;;;;;;;5052671;28;20060;-62
2023/04/01 13:03:24;;;;;;;0.20;0.20;;;;;;;;;;5042569;28;20031;-62
2023/04/01 13:05:50;;;;;;;0.52;0.40;;;;;;;;;;5033523;28;20036;-63
2023/04/01 13:08:25;;;;;;;0.57;0.57;;;;;;;;;;5033805;28;20100;-63
2023/04/01 13:11:03;;;;;;;0.45;0.45;;;;;;;;;;5033633;28;20029;-63
2023/04/01 13:13:41;;;;;;;0.28;0.22;;;;;;;;;;5033687;28;20080;-62
2023/04/01 13:16:13;;;;;;;0.20;0.20;;;;;;;;;;5032356;28;20025;-62
2023/04/01 13:18:55;;;;;;;0.30;0.30;;;;;;;;;;5036341;28;20413;-63
2023/04/01 13:21:40;;;;;;;0.30;0.30;;;;;;;;;;5053263;28;20477;-62
2023/04/01 13:24:06;;;;;;;0.82;0.38;;;;;;;;;;5052158;28;20024;-62
2023/04/01 13:26:50;;;;;;;0.43;0.22;;;;;;;;;;5053470;28;20021;-63
2023/04/01 13:29:16;;;;;;;0.10;0.10;;;;;;;;;;5053388;28;20021;-62
2023/04/01 13:32:00;;;;;;;0.17;0.15;;;;;;;;;;5053204;28;20393;-62
2023/04/01 13:34:40;;;;;;;0.20;0.20;;;;;;;;;;5052049;28;20021;-63
2023/04/01 13:37:35;;;;;;;0.28;0.28;;;;;;;;;;5033336;28;20033;-62
2023/04/01 13:40:05;;;;;;;0.30;0.22;;;;;;;;;;5036864;28;20140;-62
2023/04/01 13:42:35;;;;;;;0.75;0.75;;;;;;;;;;5033221;28;20050;-62
2023/04/01 13:45:06;;;;;;;0.45;0.30;;;;;;;;;;5033384;28;20052;-62
2023/04/01 13:47:38;;;;;;;0.20;0.20;;;;;;;;;;5033131;28;20049;-61
2023/04/01 13:50:09;;;;;;;0.32;0.32;;;;;;;;;;5033124;28;20029;-62
2023/04/01 13:52:35;;;;;;;;;;;;;;;;;;5051306;28;20415;-62
2023/04/01 13:55:19;;;;;;;0.10;0.10;;;;;;;;;;5052658;28;20051;-63
2023/04/01 13:57:54;;;;;;;0.40;0.40;;;;;;;;;;5052846;28;20057;-63
2023/04/01 14:00:32;;;;;;;0.15;0.15;;;;;;;;;;5052935;28;20447;-63
2023/04/01 14:03:08;;;;;;;0.50;0.50;;;;;;;;;;5051473;28;20028;-62
2023/04/01 14:05:34;;;;;;;0.30;0.30;;;;;;;;;;5051483;28;20735;-64
2023/04/01 14:08:20;;;;;;;0.30;0.30;;;;;;;;;;5049731;28;20024;-62
2023/04/01 14:10:56;;;;;;;0.45;0.45;;;;;;;;;;5052536;28;20082;-62
2023/04/01 14:13:34;;;;;;;0.10;0.10;;;;;;;;;;5052445;28;20074;-62
2023/04/01 14:16:00;;;;;;;0.47;0.47;;;;;;;;;;5051405;28;20473;-64
2023/04/01 14:18:45;;;;;;;0.20;0.20;;;;;;;;;;5052546;28;20045;-62
2023/04/01 14:21:11;;;;;;;0.73;0.55;;;;;;;;;;5052384;28;20497;-62
2023/04/01 14:23:37;;;;;;;0.30;0.30;;;;;;;;;;5050982;28;20055;-62
2023/04/01 14:26:07;;;;;;;0.63;0.63;;;;;;;;;;5052053;28;20025;-62
2023/04/01 14:28:42;;;;;;;0.35;0.35;;;;;;;;;;5052137;28;20373;-63
2023/04/01 14:31:24;;;;;;;0.40;0.40;;;;;;;;;;5052237;28;20029;-62
2023/04/01 14:34:05;;;;;;;0.30;0.30;;;;;;;;;;5052109;28;20017;-62
2023/04/01 14:36:46;;;;;;;0.10;0.10;;;;;;;;;;5051897;28;20051;-62
2023/04/01 14:39:31;;;;;;;0.38;0.38;;;;;;;;;;5052055;28;20083;-62
2023/04/01 14:42:16;;;;;;;0.32;0.32;;;;;;;;;;5031601;28;20045;-62
2023/04/01 14:44:51;;;;;;;0.20;0.20;;;;;;;;;;5045366;28;20386;-62
2023/04/01 14:47:35;;;;;;;0.20;0.20;;;;;;;;;;5051913;28;20075;-62
2023/04/01 14:50:16;;;;;;;0.30;0.30;;;;;;;;;;5051956;28;20021;-61
2023/04/01 14:53:09;;;;;;;0.30;0.30;;;;;;;;;;5051757;28;20127;-62
2023/04/01 14:55:44;;;;;;;0.35;0.32;;;;;;;;;;5047462;28;20091;-62
2023/04/01 14:58:12;;;;;;;0.20;0.20;;;;;;;;;;5050239;28;20155;-63
2023/04/01 15:00:45;;;;;;;0.20;0.20;;;;;;;;;;5051909;28;20021;-61
2023/04/01 15:03:20;;;;;;;0.85;0.85;;;;;;;;;;5051472;28;20025;-62
2023/04/01 15:05:52;;;;;;;0.20;0.20;;;;;;;;;;5031960;28;20036;-62
2023/04/01 15:08:21;;;;;;;0.10;0.10;;;;;;;;;;5032857;28;20037;-62
2023/04/01 15:11:06;;;;;;;0.15;0.15;;;;;;;;;;5049769;28;20021;-62